sensor_id;sensor_type;location;lat;lon;timestamp;P1;durP1;ratioP1;P2;durP2;ratioP2
63693;SDS011;49839;51.798;10.954;2022-09-12T00:01:09;5.53;;;2.75;;
63693;SDS011;49839;51.798;10.954;2022-09-12T00:03:39;6.68;;;2.88;;
63693;SDS011;49839;51.798;10.954;2022-09-12T00:06:08;5.07;;;2.72;;
63693;SDS011;49839;51.798;10.954;2022-09-12T00:08:38;5.18;;;2.63;;
63693;SDS011;49839;51.798;10.954;2022-09-12T00:11:06;6.22;;;3.22;;
63693;SDS011;49839;51.798;10.954;2022-09-12T00:13:36;5.45;;;2.70;;
63693;SDS011;49839;51.798;10.954;2022-09-12T00:16:11;6.20;;;3.20;;
63693;SDS011;49839;51.798;10.954;2022-09-12T00:18:41;6.45;;;2.88;;
63693;SDS011;49839;51.798;10.954;2022-09-12T00:21:11;4.78;;;2.58;;
63693;SDS011;49839;51.798;10.954;2022-09-12T00:23:39;5.50;;;2.90;;
63693;SDS011;49839;51.798;10.954;2022-09-12T00:26:06;7.18;;;3.05;;
63693;SDS011;49839;51.798;10.954;2022-09-12T00:28:37;5.13;;;2.90;;
63693;SDS011;49839;51.798;10.954;2022-09-12T00:31:06;5.87;;;3.00;;
63693;SDS011;49839;51.798;10.954;2022-09-12T00:33:37;5.07;;;3.03;;
63693;SDS011;49839;51.798;10.954;2022-09-12T00:36:06;4.85;;;2.70;;
63693;SDS011;49839;51.798;10.954;2022-09-12T00:38:35;5.03;;;2.90;;
63693;SDS011;49839;51.798;10.954;2022-09-12T00:41:07;5.90;;;3.00;;
63693;SDS011;49839;51.798;10.954;2022-09-12T00:43:40;6.05;;;2.92;;
63693;SDS011;49839;51.798;10.954;2022-09-12T00:46:12;7.28;;;2.90;;
63693;SDS011;49839;51.798;10.954;2022-09-12T00:48:49;6.80;;;3.00;;
63693;SDS011;49839;51.798;10.954;2022-09-12T00:51:21;6.22;;;3.10;;
63693;SDS011;49839;51.798;10.954;2022-09-12T00:53:49;4.32;;;2.72;;
63693;SDS011;49839;51.798;10.954;2022-09-12T00:56:19;6.00;;;2.90;;
63693;SDS011;49839;51.798;10.954;2022-09-12T01:01:21;5.65;;;2.92;;
63693;SDS011;49839;51.798;10.954;2022-09-12T01:03:49;9.10;;;3.50;;
63693;SDS011;49839;51.798;10.954;2022-09-12T01:06:17;6.20;;;3.58;;
63693;SDS011;49839;51.798;10.954;2022-09-12T01:08:48;7.03;;;3.10;;
63693;SDS011;49839;51.798;10.954;2022-09-12T01:11:18;5.50;;;3.00;;
63693;SDS011;49839;51.798;10.954;2022-09-12T01:13:47;6.20;;;3.23;;
63693;SDS011;49839;51.798;10.954;2022-09-12T01:16:16;7.10;;;3.53;;
63693;SDS011;49839;51.798;10.954;2022-09-12T01:18:53;5.38;;;2.90;;
63693;SDS011;49839;51.798;10.954;2022-09-12T01:21:34;6.10;;;3.45;;
63693;SDS011;49839;51.798;10.954;2022-09-12T01:24:21;6.22;;;2.90;;
63693;SDS011;49839;51.798;10.954;2022-09-12T01:27:18;6.97;;;3.30;;
63693;SDS011;49839;51.798;10.954;2022-09-12T01:29:59;7.05;;;3.53;;
63693;SDS011;49839;51.798;10.954;2022-09-12T01:32:37;7.78;;;3.60;;
63693;SDS011;49839;51.798;10.954;2022-09-12T01:35:18;9.38;;;3.47;;
63693;SDS011;49839;51.798;10.954;2022-09-12T01:37:52;6.72;;;3.17;;
63693;SDS011;49839;51.798;10.954;2022-09-12T01:40:31;6.65;;;3.55;;
63693;SDS011;49839;51.798;10.954;2022-09-12T01:43:08;7.65;;;4.03;;
63693;SDS011;49839;51.798;10.954;2022-09-12T01:45:46;11.60;;;4.10;;
63693;SDS011;49839;51.798;10.954;2022-09-12T01:48:25;8.63;;;4.10;;
63693;SDS011;49839;51.798;10.954;2022-09-12T01:50:57;7.30;;;4.28;;
63693;SDS011;49839;51.798;10.954;2022-09-12T01:53:32;9.77;;;4.50;;
63693;SDS011;49839;51.798;10.954;2022-09-12T01:56:05;8.85;;;4.70;;
63693;SDS011;49839;51.798;10.954;2022-09-12T01:58:37;6.38;;;3.58;;
63693;SDS011;49839;51.798;10.954;2022-09-12T02:01:10;6.85;;;3.80;;
63693;SDS011;49839;51.798;10.954;2022-09-12T02:03:42;7.63;;;3.65;;
63693;SDS011;49839;51.798;10.954;2022-09-12T02:06:15;8.90;;;4.07;;
63693;SDS011;49839;51.798;10.954;2022-09-12T02:08:47;8.70;;;4.45;;
63693;SDS011;49839;51.798;10.954;2022-09-12T02:11:18;8.77;;;4.43;;
63693;SDS011;49839;51.798;10.954;2022-09-12T02:13:48;8.05;;;4.60;;
63693;SDS011;49839;51.798;10.954;2022-09-12T02:16:21;8.45;;;4.25;;
63693;SDS011;49839;51.798;10.954;2022-09-12T02:18:54;9.45;;;4.30;;
63693;SDS011;49839;51.798;10.954;2022-09-12T02:21:25;7.70;;;4.53;;
63693;SDS011;49839;51.798;10.954;2022-09-12T02:23:58;8.27;;;4.18;;
63693;SDS011;49839;51.798;10.954;2022-09-12T02:26:30;8.90;;;4.57;;
63693;SDS011;49839;51.798;10.954;2022-09-12T02:29:01;8.95;;;4.40;;
63693;SDS011;49839;51.798;10.954;2022-09-12T02:31:31;7.57;;;4.45;;
63693;SDS011;49839;51.798;10.954;2022-09-12T02:34:08;8.10;;;4.13;;
63693;SDS011;49839;51.798;10.954;2022-09-12T02:36:43;8.13;;;4.18;;
63693;SDS011;49839;51.798;10.954;2022-09-12T02:39:19;8.70;;;4.10;;
63693;SDS011;49839;51.798;10.954;2022-09-12T02:41:49;7.05;;;4.05;;
63693;SDS011;49839;51.798;10.954;2022-09-12T02:44:18;8.27;;;4.05;;
63693;SDS011;49839;51.798;10.954;2022-09-12T02:46:47;9.23;;;4.55;;
63693;SDS011;49839;51.798;10.954;2022-09-12T02:49:19;7.90;;;3.95;;
63693;SDS011;49839;51.798;10.954;2022-09-12T02:51:49;7.35;;;4.00;;
63693;SDS011;49839;51.798;10.954;2022-09-12T02:54:17;10.13;;;4.05;;
63693;SDS011;49839;51.798;10.954;2022-09-12T02:56:46;10.90;;;4.20;;
63693;SDS011;49839;51.798;10.954;2022-09-12T02:59:14;8.02;;;4.47;;
63693;SDS011;49839;51.798;10.954;2022-09-12T03:01:52;7.20;;;4.38;;
63693;SDS011;49839;51.798;10.954;2022-09-12T03:04:41;9.05;;;4.45;;
63693;SDS011;49839;51.798;10.954;2022-09-12T03:07:15;8.45;;;4.55;;
63693;SDS011;49839;51.798;10.954;2022-09-12T03:09:57;9.02;;;4.90;;
63693;SDS011;49839;51.798;10.954;2022-09-12T03:12:37;9.75;;;5.00;;
63693;SDS011;49839;51.798;10.954;2022-09-12T03:15:17;11.00;;;5.20;;
63693;SDS011;49839;51.798;10.954;2022-09-12T03:17:58;7.43;;;4.60;;
63693;SDS011;49839;51.798;10.954;2022-09-12T03:20:37;8.82;;;4.45;;
63693;SDS011;49839;51.798;10.954;2022-09-12T03:23:13;11.52;;;5.10;;
63693;SDS011;49839;51.798;10.954;2022-09-12T03:25:48;7.57;;;4.82;;
63693;SDS011;49839;51.798;10.954;2022-09-12T03:28:22;8.27;;;5.45;;
63693;SDS011;49839;51.798;10.954;2022-09-12T03:30:49;8.20;;;5.40;;
63693;SDS011;49839;51.798;10.954;2022-09-12T03:33:19;7.53;;;4.95;;
63693;SDS011;49839;51.798;10.954;2022-09-12T03:35:50;13.73;;;9.30;;
63693;SDS011;49839;51.798;10.954;2022-09-12T03:38:19;10.30;;;6.93;;
63693;SDS011;49839;51.798;10.954;2022-09-12T03:40:46;9.45;;;5.93;;
63693;SDS011;49839;51.798;10.954;2022-09-12T03:43:19;9.05;;;4.50;;
63693;SDS011;49839;51.798;10.954;2022-09-12T03:45:48;9.60;;;5.22;;
63693;SDS011;49839;51.798;10.954;2022-09-12T03:48:18;8.75;;;5.38;;
63693;SDS011;49839;51.798;10.954;2022-09-12T03:50:45;8.07;;;4.80;;
63693;SDS011;49839;51.798;10.954;2022-09-12T03:53:14;8.02;;;5.43;;
63693;SDS011;49839;51.798;10.954;2022-09-12T03:55:42;8.40;;;5.00;;
63693;SDS011;49839;51.798;10.954;2022-09-12T03:58:10;10.55;;;5.22;;
63693;SDS011;49839;51.798;10.954;2022-09-12T04:00:38;9.77;;;5.28;;
63693;SDS011;49839;51.798;10.954;2022-09-12T04:03:07;8.98;;;5.10;;
63693;SDS011;49839;51.798;10.954;2022-09-12T04:05:35;10.00;;;5.97;;
63693;SDS011;49839;51.798;10.954;2022-09-12T04:08:03;8.52;;;5.80;;
63693;SDS011;49839;51.798;10.954;2022-09-12T04:10:32;10.40;;;5.32;;
63693;SDS011;49839;51.798;10.954;2022-09-12T04:12:59;8.63;;;5.27;;
63693;SDS011;49839;51.798;10.954;2022-09-12T04:15:27;9.73;;;5.78;;
63693;SDS011;49839;51.798;10.954;2022-09-12T04:17:54;9.40;;;5.65;;
63693;SDS011;49839;51.798;10.954;2022-09-12T04:20:22;9.15;;;5.65;;
63693;SDS011;49839;51.798;10.954;2022-09-12T04:22:50;8.68;;;5.40;;
63693;SDS011;49839;51.798;10.954;2022-09-12T04:25:18;7.82;;;4.93;;
63693;SDS011;49839;51.798;10.954;2022-09-12T04:27:46;10.00;;;5.22;;
63693;SDS011;49839;51.798;10.954;2022-09-12T04:30:14;9.68;;;5.03;;
63693;SDS011;49839;51.798;10.954;2022-09-12T04:32:42;9.07;;;5.13;;
63693;SDS011;49839;51.798;10.954;2022-09-12T04:35:09;8.88;;;4.70;;
63693;SDS011;49839;51.798;10.954;2022-09-12T04:37:38;7.10;;;4.78;;
63693;SDS011;49839;51.798;10.954;2022-09-12T04:40:06;9.43;;;5.03;;
63693;SDS011;49839;51.798;10.954;2022-09-12T04:42:34;12.60;;;7.40;;
63693;SDS011;49839;51.798;10.954;2022-09-12T04:45:03;8.10;;;5.47;;
63693;SDS011;49839;51.798;10.954;2022-09-12T04:47:31;9.90;;;5.47;;
63693;SDS011;49839;51.798;10.954;2022-09-12T04:49:59;8.18;;;5.55;;
63693;SDS011;49839;51.798;10.954;2022-09-12T04:52:26;8.43;;;4.60;;
63693;SDS011;49839;51.798;10.954;2022-09-12T04:54:54;9.77;;;5.00;;
63693;SDS011;49839;51.798;10.954;2022-09-12T04:57:22;9.25;;;5.55;;
63693;SDS011;49839;51.798;10.954;2022-09-12T04:59:51;7.97;;;4.55;;
63693;SDS011;49839;51.798;10.954;2022-09-12T05:02:20;8.77;;;5.30;;
63693;SDS011;49839;51.798;10.954;2022-09-12T05:04:48;10.10;;;5.10;;
63693;SDS011;49839;51.798;10.954;2022-09-12T05:07:15;9.15;;;5.43;;
63693;SDS011;49839;51.798;10.954;2022-09-12T05:09:43;9.68;;;5.30;;
63693;SDS011;49839;51.798;10.954;2022-09-12T05:12:10;9.98;;;5.75;;
63693;SDS011;49839;51.798;10.954;2022-09-12T05:14:39;11.15;;;5.13;;
63693;SDS011;49839;51.798;10.954;2022-09-12T05:17:07;7.70;;;4.93;;
63693;SDS011;49839;51.798;10.954;2022-09-12T05:19:36;9.65;;;5.22;;
63693;SDS011;49839;51.798;10.954;2022-09-12T05:22:04;8.98;;;4.72;;
63693;SDS011;49839;51.798;10.954;2022-09-12T05:24:32;9.85;;;5.43;;
63693;SDS011;49839;51.798;10.954;2022-09-12T05:27:00;9.00;;;5.10;;
63693;SDS011;49839;51.798;10.954;2022-09-12T05:29:28;9.82;;;6.00;;
63693;SDS011;49839;51.798;10.954;2022-09-12T05:31:56;13.75;;;6.65;;
63693;SDS011;49839;51.798;10.954;2022-09-12T05:34:23;12.35;;;7.10;;
63693;SDS011;49839;51.798;10.954;2022-09-12T05:36:54;10.02;;;6.55;;
63693;SDS011;49839;51.798;10.954;2022-09-12T05:39:22;8.83;;;5.93;;
63693;SDS011;49839;51.798;10.954;2022-09-12T05:41:49;10.05;;;5.43;;
63693;SDS011;49839;51.798;10.954;2022-09-12T05:44:17;7.75;;;4.68;;
63693;SDS011;49839;51.798;10.954;2022-09-12T05:46:45;9.27;;;4.88;;
63693;SDS011;49839;51.798;10.954;2022-09-12T05:49:16;7.88;;;4.70;;
63693;SDS011;49839;51.798;10.954;2022-09-12T05:51:44;9.45;;;5.13;;
63693;SDS011;49839;51.798;10.954;2022-09-12T05:54:14;10.00;;;5.32;;
63693;SDS011;49839;51.798;10.954;2022-09-12T05:56:45;7.40;;;4.80;;
63693;SDS011;49839;51.798;10.954;2022-09-12T05:59:15;10.67;;;5.03;;
63693;SDS011;49839;51.798;10.954;2022-09-12T06:01:43;7.28;;;4.35;;
63693;SDS011;49839;51.798;10.954;2022-09-12T06:04:11;10.18;;;4.63;;
63693;SDS011;49839;51.798;10.954;2022-09-12T06:06:40;9.15;;;4.30;;
63693;SDS011;49839;51.798;10.954;2022-09-12T06:09:10;7.18;;;4.03;;
63693;SDS011;49839;51.798;10.954;2022-09-12T06:11:41;8.63;;;3.95;;
63693;SDS011;49839;51.798;10.954;2022-09-12T06:14:10;9.45;;;4.10;;
63693;SDS011;49839;51.798;10.954;2022-09-12T06:19:10;7.13;;;3.88;;
63693;SDS011;49839;51.798;10.954;2022-09-12T06:21:40;7.80;;;4.05;;
63693;SDS011;49839;51.798;10.954;2022-09-12T06:24:08;5.97;;;3.78;;
63693;SDS011;49839;51.798;10.954;2022-09-12T06:26:36;7.80;;;4.03;;
63693;SDS011;49839;51.798;10.954;2022-09-12T06:29:05;7.28;;;3.88;;
63693;SDS011;49839;51.798;10.954;2022-09-12T06:31:34;6.65;;;3.25;;
63693;SDS011;49839;51.798;10.954;2022-09-12T06:34:04;6.28;;;3.40;;
63693;SDS011;49839;51.798;10.954;2022-09-12T06:36:35;5.00;;;3.28;;
63693;SDS011;49839;51.798;10.954;2022-09-12T06:39:04;6.03;;;2.97;;
63693;SDS011;49839;51.798;10.954;2022-09-12T06:41:33;9.23;;;3.20;;
63693;SDS011;49839;51.798;10.954;2022-09-12T06:44:05;9.65;;;3.05;;
63693;SDS011;49839;51.798;10.954;2022-09-12T06:46:34;10.15;;;2.97;;
63693;SDS011;49839;51.798;10.954;2022-09-12T06:49:02;6.43;;;3.00;;
63693;SDS011;49839;51.798;10.954;2022-09-12T06:51:29;11.57;;;3.30;;
63693;SDS011;49839;51.798;10.954;2022-09-12T06:53:57;8.52;;;3.05;;
63693;SDS011;49839;51.798;10.954;2022-09-12T06:56:26;8.82;;;2.55;;
63693;SDS011;49839;51.798;10.954;2022-09-12T06:58:54;7.80;;;2.80;;
63693;SDS011;49839;51.798;10.954;2022-09-12T07:01:26;12.65;;;2.80;;
63693;SDS011;49839;51.798;10.954;2022-09-12T07:03:55;9.32;;;2.90;;
63693;SDS011;49839;51.798;10.954;2022-09-12T07:06:25;9.07;;;2.97;;
63693;SDS011;49839;51.798;10.954;2022-09-12T07:08:57;6.35;;;2.88;;
63693;SDS011;49839;51.798;10.954;2022-09-12T07:11:26;10.57;;;3.05;;
63693;SDS011;49839;51.798;10.954;2022-09-12T07:13:56;6.70;;;2.85;;
63693;SDS011;49839;51.798;10.954;2022-09-12T07:16:27;6.03;;;3.10;;
63693;SDS011;49839;51.798;10.954;2022-09-12T07:18:56;6.47;;;3.42;;
63693;SDS011;49839;51.798;10.954;2022-09-12T07:21:24;6.28;;;3.20;;
63693;SDS011;49839;51.798;10.954;2022-09-12T07:23:58;9.57;;;3.08;;
63693;SDS011;49839;51.798;10.954;2022-09-12T07:26:26;6.82;;;2.90;;
63693;SDS011;49839;51.798;10.954;2022-09-12T07:31:45;5.28;;;3.00;;
63693;SDS011;49839;51.798;10.954;2022-09-12T07:34:13;7.57;;;3.00;;
63693;SDS011;49839;51.798;10.954;2022-09-12T07:36:40;6.53;;;3.25;;
63693;SDS011;49839;51.798;10.954;2022-09-12T07:39:08;10.23;;;3.03;;
63693;SDS011;49839;51.798;10.954;2022-09-12T07:41:35;6.18;;;2.67;;
63693;SDS011;49839;51.798;10.954;2022-09-12T07:44:03;5.50;;;3.00;;
63693;SDS011;49839;51.798;10.954;2022-09-12T07:46:31;6.25;;;2.67;;
63693;SDS011;49839;51.798;10.954;2022-09-12T07:49:01;8.43;;;2.95;;
63693;SDS011;49839;51.798;10.954;2022-09-12T07:53:57;3.55;;;2.30;;
63693;SDS011;49839;51.798;10.954;2022-09-12T07:56:27;6.95;;;2.97;;
63693;SDS011;49839;51.798;10.954;2022-09-12T07:59:04;8.07;;;2.78;;
63693;SDS011;49839;51.798;10.954;2022-09-12T08:01:31;6.28;;;2.70;;
63693;SDS011;49839;51.798;10.954;2022-09-12T08:03:59;3.78;;;2.08;;
63693;SDS011;49839;51.798;10.954;2022-09-12T08:06:28;5.65;;;2.30;;
63693;SDS011;49839;51.798;10.954;2022-09-12T08:09:04;4.20;;;2.30;;
63693;SDS011;49839;51.798;10.954;2022-09-12T08:11:33;4.05;;;1.83;;
63693;SDS011;49839;51.798;10.954;2022-09-12T08:14:01;4.93;;;2.00;;
63693;SDS011;49839;51.798;10.954;2022-09-12T08:16:31;8.43;;;2.58;;
63693;SDS011;49839;51.798;10.954;2022-09-12T08:19:06;6.45;;;2.15;;
63693;SDS011;49839;51.798;10.954;2022-09-12T08:21:35;4.30;;;1.92;;
63693;SDS011;49839;51.798;10.954;2022-09-12T08:24:03;3.88;;;2.00;;
63693;SDS011;49839;51.798;10.954;2022-09-12T08:26:34;6.35;;;2.40;;
63693;SDS011;49839;51.798;10.954;2022-09-12T08:29:06;4.85;;;2.10;;
63693;SDS011;49839;51.798;10.954;2022-09-12T08:31:33;4.07;;;2.40;;
63693;SDS011;49839;51.798;10.954;2022-09-12T08:34:03;5.45;;;2.00;;
63693;SDS011;49839;51.798;10.954;2022-09-12T08:36:31;4.13;;;2.25;;
63693;SDS011;49839;51.798;10.954;2022-09-12T08:41:31;4.63;;;1.77;;
63693;SDS011;49839;51.798;10.954;2022-09-12T08:47:10;4.47;;;2.00;;
63693;SDS011;49839;51.798;10.954;2022-09-12T08:49:49;3.95;;;1.50;;
63693;SDS011;49839;51.798;10.954;2022-09-12T08:52:24;6.70;;;1.75;;
63693;SDS011;49839;51.798;10.954;2022-09-12T08:54:58;4.35;;;1.50;;
63693;SDS011;49839;51.798;10.954;2022-09-12T08:57:28;3.58;;;1.27;;
63693;SDS011;49839;51.798;10.954;2022-09-12T08:59:55;5.25;;;1.40;;
63693;SDS011;49839;51.798;10.954;2022-09-12T09:02:45;3.72;;;1.40;;
63693;SDS011;49839;51.798;10.954;2022-09-12T09:05:36;7.75;;;1.50;;
63693;SDS011;49839;51.798;10.954;2022-09-12T09:08:18;3.35;;;1.10;;
63693;SDS011;49839;51.798;10.954;2022-09-12T09:10:59;3.22;;;0.98;;
63693;SDS011;49839;51.798;10.954;2022-09-12T09:13:37;3.28;;;1.20;;
63693;SDS011;49839;51.798;10.954;2022-09-12T09:16:34;3.72;;;1.20;;
63693;SDS011;49839;51.798;10.954;2022-09-12T09:19:04;1.52;;;0.82;;
63693;SDS011;49839;51.798;10.954;2022-09-12T09:21:39;5.72;;;1.10;;
63693;SDS011;49839;51.798;10.954;2022-09-12T09:24:12;2.47;;;1.02;;
63693;SDS011;49839;51.798;10.954;2022-09-12T09:26:45;3.88;;;1.15;;
63693;SDS011;49839;51.798;10.954;2022-09-12T09:29:17;4.05;;;1.10;;
63693;SDS011;49839;51.798;10.954;2022-09-12T09:31:47;2.22;;;1.00;;
63693;SDS011;49839;51.798;10.954;2022-09-12T09:34:19;1.85;;;0.82;;
63693;SDS011;49839;51.798;10.954;2022-09-12T09:36:49;1.92;;;0.98;;
63693;SDS011;49839;51.798;10.954;2022-09-12T09:39:21;2.60;;;1.10;;
63693;SDS011;49839;51.798;10.954;2022-09-12T09:42:00;2.25;;;0.80;;
63693;SDS011;49839;51.798;10.954;2022-09-12T09:44:37;4.43;;;1.00;;
63693;SDS011;49839;51.798;10.954;2022-09-12T09:47:07;4.35;;;0.88;;
63693;SDS011;49839;51.798;10.954;2022-09-12T09:49:36;2.22;;;1.20;;
63693;SDS011;49839;51.798;10.954;2022-09-12T09:52:05;3.30;;;0.98;;
63693;SDS011;49839;51.798;10.954;2022-09-12T09:54:35;1.38;;;0.82;;
63693;SDS011;49839;51.798;10.954;2022-09-12T10:00:22;2.50;;;0.90;;
63693;SDS011;49839;51.798;10.954;2022-09-12T10:03:03;3.40;;;0.88;;
63693;SDS011;49839;51.798;10.954;2022-09-12T10:05:52;1.95;;;1.10;;
63693;SDS011;49839;51.798;10.954;2022-09-12T10:08:24;2.97;;;1.00;;
63693;SDS011;49839;51.798;10.954;2022-09-12T10:10:55;2.45;;;1.10;;
63693;SDS011;49839;51.798;10.954;2022-09-12T10:13:33;1.77;;;0.80;;
63693;SDS011;49839;51.798;10.954;2022-09-12T10:16:05;3.58;;;1.00;;
63693;SDS011;49839;51.798;10.954;2022-09-12T10:18:43;3.42;;;0.98;;
63693;SDS011;49839;51.798;10.954;2022-09-12T10:21:13;1.90;;;0.70;;
63693;SDS011;49839;51.798;10.954;2022-09-12T10:23:44;3.67;;;0.90;;
63693;SDS011;49839;51.798;10.954;2022-09-12T10:26:14;2.92;;;0.90;;
63693;SDS011;49839;51.798;10.954;2022-09-12T10:28:48;2.47;;;0.70;;
63693;SDS011;49839;51.798;10.954;2022-09-12T10:31:22;3.03;;;0.85;;
63693;SDS011;49839;51.798;10.954;2022-09-12T10:33:54;2.17;;;0.80;;
63693;SDS011;49839;51.798;10.954;2022-09-12T10:36:23;3.72;;;0.70;;
63693;SDS011;49839;51.798;10.954;2022-09-12T10:38:53;2.08;;;0.60;;
63693;SDS011;49839;51.798;10.954;2022-09-12T10:41:23;2.38;;;0.70;;
63693;SDS011;49839;51.798;10.954;2022-09-12T10:43:54;2.17;;;0.70;;
63693;SDS011;49839;51.798;10.954;2022-09-12T10:46:32;1.88;;;0.80;;
63693;SDS011;49839;51.798;10.954;2022-09-12T10:51:57;1.30;;;0.60;;
63693;SDS011;49839;51.798;10.954;2022-09-12T10:54:43;2.05;;;0.63;;
63693;SDS011;49839;51.798;10.954;2022-09-12T10:57:30;2.00;;;0.80;;
63693;SDS011;49839;51.798;10.954;2022-09-12T11:00:11;2.33;;;0.70;;
63693;SDS011;49839;51.798;10.954;2022-09-12T11:02:56;1.30;;;0.60;;
63693;SDS011;49839;51.798;10.954;2022-09-12T11:05:32;1.60;;;0.60;;
63693;SDS011;49839;51.798;10.954;2022-09-12T11:08:10;3.13;;;0.82;;
63693;SDS011;49839;51.798;10.954;2022-09-12T11:10:44;1.67;;;0.60;;
63693;SDS011;49839;51.798;10.954;2022-09-12T11:13:23;3.13;;;0.90;;
63693;SDS011;49839;51.798;10.954;2022-09-12T11:16:01;1.70;;;0.85;;
63693;SDS011;49839;51.798;10.954;2022-09-12T11:21:38;3.95;;;0.75;;
63693;SDS011;49839;51.798;10.954;2022-09-12T11:24:22;1.50;;;0.80;;
63693;SDS011;49839;51.798;10.954;2022-09-12T11:27:00;1.98;;;0.88;;
63693;SDS011;49839;51.798;10.954;2022-09-12T11:29:41;2.38;;;0.80;;
63693;SDS011;49839;51.798;10.954;2022-09-12T11:32:24;1.50;;;0.70;;
63693;SDS011;49839;51.798;10.954;2022-09-12T11:35:07;1.75;;;0.60;;
63693;SDS011;49839;51.798;10.954;2022-09-12T11:37:58;2.75;;;0.98;;
63693;SDS011;49839;51.798;10.954;2022-09-12T11:40:39;2.92;;;0.90;;
63693;SDS011;49839;51.798;10.954;2022-09-12T11:43:13;2.85;;;1.00;;
63693;SDS011;49839;51.798;10.954;2022-09-12T11:45:48;1.63;;;0.80;;
63693;SDS011;49839;51.798;10.954;2022-09-12T11:48:22;1.67;;;1.00;;
63693;SDS011;49839;51.798;10.954;2022-09-12T11:51:01;3.15;;;1.05;;
63693;SDS011;49839;51.798;10.954;2022-09-12T11:53:32;1.42;;;0.90;;
63693;SDS011;49839;51.798;10.954;2022-09-12T11:56:07;3.60;;;0.90;;
63693;SDS011;49839;51.798;10.954;2022-09-12T11:58:40;2.40;;;0.90;;
63693;SDS011;49839;51.798;10.954;2022-09-12T12:01:10;1.80;;;0.80;;
63693;SDS011;49839;51.798;10.954;2022-09-12T12:03:43;2.15;;;0.80;;
63693;SDS011;49839;51.798;10.954;2022-09-12T12:06:13;3.05;;;1.08;;
63693;SDS011;49839;51.798;10.954;2022-09-12T12:08:44;1.20;;;0.80;;
63693;SDS011;49839;51.798;10.954;2022-09-12T12:11:13;2.33;;;0.80;;
63693;SDS011;49839;51.798;10.954;2022-09-12T12:13:50;1.67;;;0.80;;
63693;SDS011;49839;51.798;10.954;2022-09-12T12:16:24;2.85;;;0.70;;
63693;SDS011;49839;51.798;10.954;2022-09-12T12:18:54;1.58;;;0.60;;
63693;SDS011;49839;51.798;10.954;2022-09-12T12:21:33;1.58;;;0.63;;
63693;SDS011;49839;51.798;10.954;2022-09-12T12:24:13;1.00;;;0.60;;
63693;SDS011;49839;51.798;10.954;2022-09-12T12:26:44;6.47;;;0.77;;
63693;SDS011;49839;51.798;10.954;2022-09-12T12:29:35;5.40;;;1.02;;
63693;SDS011;49839;51.798;10.954;2022-09-12T12:32:23;1.00;;;0.65;;
63693;SDS011;49839;51.798;10.954;2022-09-12T12:35:02;1.80;;;0.60;;
63693;SDS011;49839;51.798;10.954;2022-09-12T12:38:24;1.38;;;0.90;;
63693;SDS011;49839;51.798;10.954;2022-09-12T12:40:53;3.40;;;0.70;;
63693;SDS011;49839;51.798;10.954;2022-09-12T12:44:00;4.45;;;0.75;;
63693;SDS011;49839;51.798;10.954;2022-09-12T12:47:14;13.25;;;1.02;;
63693;SDS011;49839;51.798;10.954;2022-09-12T12:49:49;2.78;;;0.80;;
63693;SDS011;49839;51.798;10.954;2022-09-12T12:52:19;2.97;;;0.80;;
63693;SDS011;49839;51.798;10.954;2022-09-12T12:54:56;1.63;;;0.57;;
63693;SDS011;49839;51.798;10.954;2022-09-12T12:57:27;1.92;;;0.80;;
63693;SDS011;49839;51.798;10.954;2022-09-12T12:59:59;1.88;;;0.88;;
63693;SDS011;49839;51.798;10.954;2022-09-12T13:02:31;2.15;;;0.80;;
63693;SDS011;49839;51.798;10.954;2022-09-12T13:05:02;2.45;;;0.80;;
63693;SDS011;49839;51.798;10.954;2022-09-12T13:07:33;2.40;;;0.70;;
63693;SDS011;49839;51.798;10.954;2022-09-12T13:10:04;2.15;;;0.60;;
63693;SDS011;49839;51.798;10.954;2022-09-12T13:12:35;2.65;;;0.70;;
63693;SDS011;49839;51.798;10.954;2022-09-12T13:18:12;4.15;;;0.68;;
63693;SDS011;49839;51.798;10.954;2022-09-12T13:20:44;2.78;;;0.80;;
63693;SDS011;49839;51.798;10.954;2022-09-12T13:23:21;1.83;;;0.75;;
63693;SDS011;49839;51.798;10.954;2022-09-12T13:25:53;1.23;;;0.60;;
63693;SDS011;49839;51.798;10.954;2022-09-12T13:28:23;3.15;;;0.70;;
63693;SDS011;49839;51.798;10.954;2022-09-12T13:33:32;2.47;;;0.80;;
63693;SDS011;49839;51.798;10.954;2022-09-12T13:36:08;3.22;;;0.77;;
63693;SDS011;49839;51.798;10.954;2022-09-12T13:38:52;2.25;;;0.57;;
63693;SDS011;49839;51.798;10.954;2022-09-12T13:41:35;1.67;;;0.70;;
63693;SDS011;49839;51.798;10.954;2022-09-12T13:44:13;1.83;;;0.80;;
63693;SDS011;49839;51.798;10.954;2022-09-12T13:46:44;1.98;;;0.80;;
63693;SDS011;49839;51.798;10.954;2022-09-12T13:49:17;3.20;;;0.90;;
63693;SDS011;49839;51.798;10.954;2022-09-12T13:51:55;1.08;;;0.70;;
63693;SDS011;49839;51.798;10.954;2022-09-12T13:54:28;3.53;;;0.70;;
63693;SDS011;49839;51.798;10.954;2022-09-12T13:56:57;1.33;;;0.80;;
63693;SDS011;49839;51.798;10.954;2022-09-12T13:59:25;1.30;;;0.80;;
63693;SDS011;49839;51.798;10.954;2022-09-12T14:01:53;1.50;;;0.90;;
63693;SDS011;49839;51.798;10.954;2022-09-12T14:04:22;1.48;;;0.98;;
63693;SDS011;49839;51.798;10.954;2022-09-12T14:07:12;2.38;;;0.80;;
63693;SDS011;49839;51.798;10.954;2022-09-12T14:09:42;4.38;;;1.00;;
63693;SDS011;49839;51.798;10.954;2022-09-12T14:12:13;1.77;;;0.70;;
63693;SDS011;49839;51.798;10.954;2022-09-12T14:14:47;1.40;;;0.70;;
63693;SDS011;49839;51.798;10.954;2022-09-12T14:17:22;3.42;;;0.82;;
63693;SDS011;49839;51.798;10.954;2022-09-12T14:19:52;1.50;;;0.90;;
63693;SDS011;49839;51.798;10.954;2022-09-12T14:22:20;7.65;;;1.02;;
63693;SDS011;49839;51.798;10.954;2022-09-12T14:24:48;2.10;;;0.75;;
63693;SDS011;49839;51.798;10.954;2022-09-12T14:27:17;1.53;;;0.90;;
63693;SDS011;49839;51.798;10.954;2022-09-12T14:29:51;1.20;;;0.80;;
63693;SDS011;49839;51.798;10.954;2022-09-12T14:32:23;1.38;;;0.85;;
63693;SDS011;49839;51.798;10.954;2022-09-12T14:37:47;1.58;;;0.88;;
63693;SDS011;49839;51.798;10.954;2022-09-12T14:40:17;2.65;;;0.95;;
63693;SDS011;49839;51.798;10.954;2022-09-12T14:42:47;2.90;;;0.70;;
63693;SDS011;49839;51.798;10.954;2022-09-12T14:45:17;1.52;;;0.82;;
63693;SDS011;49839;51.798;10.954;2022-09-12T14:47:51;1.38;;;0.80;;
63693;SDS011;49839;51.798;10.954;2022-09-12T14:50:22;1.85;;;0.90;;
63693;SDS011;49839;51.798;10.954;2022-09-12T14:53:03;1.05;;;0.70;;
63693;SDS011;49839;51.798;10.954;2022-09-12T14:55:32;1.70;;;0.80;;
63693;SDS011;49839;51.798;10.954;2022-09-12T14:58:11;10.15;;;1.00;;
63693;SDS011;49839;51.798;10.954;2022-09-12T15:00:51;3.17;;;0.82;;
63693;SDS011;49839;51.798;10.954;2022-09-12T15:03:24;2.38;;;0.90;;
63693;SDS011;49839;51.798;10.954;2022-09-12T15:05:55;1.42;;;0.80;;
63693;SDS011;49839;51.798;10.954;2022-09-12T15:08:24;1.60;;;0.90;;
63693;SDS011;49839;51.798;10.954;2022-09-12T15:10:52;1.83;;;0.95;;
63693;SDS011;49839;51.798;10.954;2022-09-12T15:13:21;1.95;;;0.70;;
63693;SDS011;49839;51.798;10.954;2022-09-12T15:15:51;2.70;;;1.10;;
63693;SDS011;49839;51.798;10.954;2022-09-12T15:18:21;1.40;;;0.80;;
63693;SDS011;49839;51.798;10.954;2022-09-12T15:20:52;2.20;;;0.90;;
63693;SDS011;49839;51.798;10.954;2022-09-12T15:23:28;7.00;;;1.10;;
63693;SDS011;49839;51.798;10.954;2022-09-12T15:25:59;1.48;;;0.90;;
63693;SDS011;49839;51.798;10.954;2022-09-12T15:28:28;4.72;;;2.22;;
63693;SDS011;49839;51.798;10.954;2022-09-12T15:30:57;2.72;;;1.10;;
63693;SDS011;49839;51.798;10.954;2022-09-12T15:33:30;2.25;;;0.80;;
63693;SDS011;49839;51.798;10.954;2022-09-12T15:35:59;3.47;;;0.88;;
63693;SDS011;49839;51.798;10.954;2022-09-12T15:38:27;1.67;;;0.90;;